sensor_id;sensor_type;location;lat;lon;timestamp;P1;durP1;ratioP1;P2;durP2;ratioP2
22254;SDS011;11296;42.684;23.322;2022-08-11T00:01:20;8.33;;;5.87;;
22254;SDS011;11296;42.684;23.322;2022-08-11T00:03:59;6.20;;;5.60;;
22254;SDS011;11296;42.684;23.322;2022-08-11T00:06:32;6.70;;;6.00;;
22254;SDS011;11296;42.684;23.322;2022-08-11T00:09:01;6.50;;;5.90;;
22254;SDS011;11296;42.684;23.322;2022-08-11T00:11:34;6.40;;;5.90;;
22254;SDS011;11296;42.684;23.322;2022-08-11T00:14:04;6.60;;;5.93;;
22254;SDS011;11296;42.684;23.322;2022-08-11T00:16:38;6.93;;;6.33;;
22254;SDS011;11296;42.684;23.322;2022-08-11T00:19:05;7.40;;;6.70;;
22254;SDS011;11296;42.684;23.322;2022-08-11T00:21:32;7.40;;;6.70;;
22254;SDS011;11296;42.684;23.322;2022-08-11T00:24:06;7.43;;;6.40;;
22254;SDS011;11296;42.684;23.322;2022-08-11T00:26:32;7.93;;;7.17;;
22254;SDS011;11296;42.684;23.322;2022-08-11T00:29:10;7.67;;;6.57;;
22254;SDS011;11296;42.684;23.322;2022-08-11T00:31:36;8.50;;;7.70;;
22254;SDS011;11296;42.684;23.322;2022-08-11T00:34:09;8.10;;;7.40;;
22254;SDS011;11296;42.684;23.322;2022-08-11T00:39:44;7.13;;;6.40;;
22254;SDS011;11296;42.684;23.322;2022-08-11T00:42:22;7.03;;;6.33;;
22254;SDS011;11296;42.684;23.322;2022-08-11T00:50:10;7.00;;;6.40;;
22254;SDS011;11296;42.684;23.322;2022-08-11T00:53:03;7.23;;;6.50;;
22254;SDS011;11296;42.684;23.322;2022-08-11T01:11:50;7.77;;;6.97;;
22254;SDS011;11296;42.684;23.322;2022-08-11T01:17:04;7.27;;;6.57;;
22254;SDS011;11296;42.684;23.322;2022-08-11T01:48:07;7.33;;;6.73;;
22254;SDS011;11296;42.684;23.322;2022-08-11T02:06:41;7.80;;;7.10;;
22254;SDS011;11296;42.684;23.322;2022-08-11T02:11:54;7.73;;;7.03;;
22254;SDS011;11296;42.684;23.322;2022-08-11T02:14:27;8.33;;;7.33;;
22254;SDS011;11296;42.684;23.322;2022-08-11T02:23:02;7.90;;;7.07;;
22254;SDS011;11296;42.684;23.322;2022-08-11T02:28:52;7.57;;;6.97;;
22254;SDS011;11296;42.684;23.322;2022-08-11T02:34:20;8.30;;;7.60;;
22254;SDS011;11296;42.684;23.322;2022-08-11T02:39:54;8.50;;;7.70;;
22254;SDS011;11296;42.684;23.322;2022-08-11T02:45:30;8.00;;;7.33;;
22254;SDS011;11296;42.684;23.322;2022-08-11T02:51:38;8.67;;;7.70;;
22254;SDS011;11296;42.684;23.322;2022-08-11T02:54:22;9.83;;;7.50;;
22254;SDS011;11296;42.684;23.322;2022-08-11T02:57:01;8.33;;;7.60;;
22254;SDS011;11296;42.684;23.322;2022-08-11T03:02:48;7.83;;;7.23;;
22254;SDS011;11296;42.684;23.322;2022-08-11T03:05:35;7.93;;;7.23;;
22254;SDS011;11296;42.684;23.322;2022-08-11T03:14:54;8.17;;;7.43;;
22254;SDS011;11296;42.684;23.322;2022-08-11T03:23:33;8.27;;;7.47;;
22254;SDS011;11296;42.684;23.322;2022-08-11T03:26:22;8.47;;;7.57;;
22254;SDS011;11296;42.684;23.322;2022-08-11T03:34:23;9.43;;;7.60;;
22254;SDS011;11296;42.684;23.322;2022-08-11T03:37:10;8.07;;;7.37;;
22254;SDS011;11296;42.684;23.322;2022-08-11T03:46:11;8.30;;;7.50;;
22254;SDS011;11296;42.684;23.322;2022-08-11T03:51:51;10.20;;;8.10;;
22254;SDS011;11296;42.684;23.322;2022-08-11T04:19:52;9.83;;;8.93;;
22254;SDS011;11296;42.684;23.322;2022-08-11T04:22:47;9.33;;;8.20;;
22254;SDS011;11296;42.684;23.322;2022-08-11T04:37:10;8.47;;;7.67;;
22254;SDS011;11296;42.684;23.322;2022-08-11T04:45:55;9.87;;;8.43;;
22254;SDS011;11296;42.684;23.322;2022-08-11T04:48:47;10.27;;;8.43;;
22254;SDS011;11296;42.684;23.322;2022-08-11T05:16:18;10.70;;;8.23;;
22254;SDS011;11296;42.684;23.322;2022-08-11T05:19:17;11.90;;;10.70;;
22254;SDS011;11296;42.684;23.322;2022-08-11T05:22:04;9.13;;;8.20;;
22254;SDS011;11296;42.684;23.322;2022-08-11T05:25:07;8.43;;;7.40;;
22254;SDS011;11296;42.684;23.322;2022-08-11T05:28:11;7.67;;;6.97;;
22254;SDS011;11296;42.684;23.322;2022-08-11T05:31:02;12.40;;;7.30;;
22254;SDS011;11296;42.684;23.322;2022-08-11T05:33:57;9.10;;;8.20;;
22254;SDS011;11296;42.684;23.322;2022-08-11T05:36:48;8.17;;;7.47;;
22254;SDS011;11296;42.684;23.322;2022-08-11T05:39:23;9.87;;;8.23;;
22254;SDS011;11296;42.684;23.322;2022-08-11T05:42:11;8.20;;;7.27;;
22254;SDS011;11296;42.684;23.322;2022-08-11T05:45:00;9.43;;;7.77;;
22254;SDS011;11296;42.684;23.322;2022-08-11T05:47:47;9.43;;;8.00;;
22254;SDS011;11296;42.684;23.322;2022-08-11T05:50:32;8.70;;;7.90;;
22254;SDS011;11296;42.684;23.322;2022-08-11T05:53:17;10.20;;;8.37;;
22254;SDS011;11296;42.684;23.322;2022-08-11T05:56:03;9.23;;;7.77;;
22254;SDS011;11296;42.684;23.322;2022-08-11T05:58:45;8.73;;;7.83;;
22254;SDS011;11296;42.684;23.322;2022-08-11T06:01:19;8.57;;;7.50;;
22254;SDS011;11296;42.684;23.322;2022-08-11T06:03:50;8.47;;;7.73;;
22254;SDS011;11296;42.684;23.322;2022-08-11T06:06:37;9.07;;;8.17;;
22254;SDS011;11296;42.684;23.322;2022-08-11T06:09:05;9.57;;;7.90;;
22254;SDS011;11296;42.684;23.322;2022-08-11T06:11:36;11.37;;;8.97;;
22254;SDS011;11296;42.684;23.322;2022-08-11T06:14:05;10.23;;;8.83;;
22254;SDS011;11296;42.684;23.322;2022-08-11T06:16:32;9.03;;;8.03;;
22254;SDS011;11296;42.684;23.322;2022-08-11T06:18:58;8.23;;;7.50;;
22254;SDS011;11296;42.684;23.322;2022-08-11T06:21:24;8.37;;;7.47;;
22254;SDS011;11296;42.684;23.322;2022-08-11T06:23:53;8.80;;;7.97;;
22254;SDS011;11296;42.684;23.322;2022-08-11T06:26:22;8.80;;;7.60;;
22254;SDS011;11296;42.684;23.322;2022-08-11T06:28:48;9.60;;;7.80;;
22254;SDS011;11296;42.684;23.322;2022-08-11T06:31:18;8.47;;;7.60;;
22254;SDS011;11296;42.684;23.322;2022-08-11T06:36:15;8.00;;;7.10;;
22254;SDS011;11296;42.684;23.322;2022-08-11T06:44:32;8.60;;;7.70;;
22254;SDS011;11296;42.684;23.322;2022-08-11T06:47:10;8.00;;;7.20;;
22254;SDS011;11296;42.684;23.322;2022-08-11T06:49:44;7.30;;;6.07;;
22254;SDS011;11296;42.684;23.322;2022-08-11T06:52:31;8.63;;;6.90;;
22254;SDS011;11296;42.684;23.322;2022-08-11T06:55:12;6.57;;;6.07;;
22254;SDS011;11296;42.684;23.322;2022-08-11T06:58:16;6.90;;;6.20;;
22254;SDS011;11296;42.684;23.322;2022-08-11T07:01:04;6.03;;;5.43;;
22254;SDS011;11296;42.684;23.322;2022-08-11T07:03:42;7.37;;;6.67;;
22254;SDS011;11296;42.684;23.322;2022-08-11T07:09:06;10.37;;;6.77;;
22254;SDS011;11296;42.684;23.322;2022-08-11T07:12:39;6.30;;;5.70;;
22254;SDS011;11296;42.684;23.322;2022-08-11T07:15:32;6.10;;;5.60;;
22254;SDS011;11296;42.684;23.322;2022-08-11T07:18:07;5.77;;;5.23;;
22254;SDS011;11296;42.684;23.322;2022-08-11T07:21:04;6.47;;;5.83;;
22254;SDS011;11296;42.684;23.322;2022-08-11T07:23:52;9.00;;;6.07;;
22254;SDS011;11296;42.684;23.322;2022-08-11T07:26:39;6.57;;;5.97;;
22254;SDS011;11296;42.684;23.322;2022-08-11T07:29:26;6.10;;;5.60;;
22254;SDS011;11296;42.684;23.322;2022-08-11T07:31:57;7.63;;;5.97;;
22254;SDS011;11296;42.684;23.322;2022-08-11T07:36:59;8.97;;;6.23;;
22254;SDS011;11296;42.684;23.322;2022-08-11T07:39:32;6.93;;;5.77;;
22254;SDS011;11296;42.684;23.322;2022-08-11T07:42:04;8.83;;;5.63;;
22254;SDS011;11296;42.684;23.322;2022-08-11T07:44:39;7.13;;;5.37;;
22254;SDS011;11296;42.684;23.322;2022-08-11T07:47:30;5.90;;;5.33;;
22254;SDS011;11296;42.684;23.322;2022-08-11T07:50:15;6.23;;;5.30;;
22254;SDS011;11296;42.684;23.322;2022-08-11T07:53:00;6.00;;;5.50;;
22254;SDS011;11296;42.684;23.322;2022-08-11T07:55:28;6.43;;;5.83;;
22254;SDS011;11296;42.684;23.322;2022-08-11T07:57:58;6.10;;;5.50;;
22254;SDS011;11296;42.684;23.322;2022-08-11T08:00:52;6.87;;;5.20;;
22254;SDS011;11296;42.684;23.322;2022-08-11T08:03:39;6.87;;;5.70;;
22254;SDS011;11296;42.684;23.322;2022-08-11T08:06:25;5.53;;;5.03;;
22254;SDS011;11296;42.684;23.322;2022-08-11T08:09:11;5.43;;;5.03;;
22254;SDS011;11296;42.684;23.322;2022-08-11T08:11:56;6.37;;;5.50;;
22254;SDS011;11296;42.684;23.322;2022-08-11T08:14:43;5.33;;;4.83;;
22254;SDS011;11296;42.684;23.322;2022-08-11T08:17:28;5.33;;;4.83;;
22254;SDS011;11296;42.684;23.322;2022-08-11T08:20:15;5.67;;;5.23;;
22254;SDS011;11296;42.684;23.322;2022-08-11T08:22:44;5.23;;;4.73;;
22254;SDS011;11296;42.684;23.322;2022-08-11T08:25:15;5.67;;;5.17;;
22254;SDS011;11296;42.684;23.322;2022-08-11T08:27:42;7.50;;;4.80;;
22254;SDS011;11296;42.684;23.322;2022-08-11T08:30:09;6.10;;;5.50;;
22254;SDS011;11296;42.684;23.322;2022-08-11T08:32:56;6.18;;;4.82;;
22254;SDS011;11296;42.684;23.322;2022-08-11T08:35:25;5.73;;;5.23;;
22254;SDS011;11296;42.684;23.322;2022-08-11T08:37:51;7.00;;;5.30;;
22254;SDS011;11296;42.684;23.322;2022-08-11T08:40:17;5.78;;;5.28;;
22254;SDS011;11296;42.684;23.322;2022-08-11T08:42:46;5.93;;;5.32;;
22254;SDS011;11296;42.684;23.322;2022-08-11T08:45:16;5.90;;;5.18;;
22254;SDS011;11296;42.684;23.322;2022-08-11T08:47:53;5.95;;;5.32;;
22254;SDS011;11296;42.684;23.322;2022-08-11T08:50:25;6.70;;;5.60;;
22254;SDS011;11296;42.684;23.322;2022-08-11T08:53:16;5.60;;;5.10;;
22254;SDS011;11296;42.684;23.322;2022-08-11T08:55:45;7.43;;;5.13;;
22254;SDS011;11296;42.684;23.322;2022-08-11T08:58:14;6.80;;;4.82;;
22254;SDS011;11296;42.684;23.322;2022-08-11T09:00:43;5.60;;;5.03;;
22254;SDS011;11296;42.684;23.322;2022-08-11T09:03:11;5.85;;;4.88;;
22254;SDS011;11296;42.684;23.322;2022-08-11T09:05:38;5.25;;;4.75;;
22254;SDS011;11296;42.684;23.322;2022-08-11T09:08:05;5.72;;;4.88;;
22254;SDS011;11296;42.684;23.322;2022-08-11T09:10:32;5.50;;;5.00;;
22254;SDS011;11296;42.684;23.322;2022-08-11T09:12:58;5.55;;;5.05;;
22254;SDS011;11296;42.684;23.322;2022-08-11T09:15:25;5.47;;;4.97;;
22254;SDS011;11296;42.684;23.322;2022-08-11T09:17:53;5.28;;;4.78;;
22254;SDS011;11296;42.684;23.322;2022-08-11T09:20:28;5.40;;;4.90;;
22254;SDS011;11296;42.684;23.322;2022-08-11T09:23:00;4.97;;;4.57;;
22254;SDS011;11296;42.684;23.322;2022-08-11T09:25:48;5.13;;;4.70;;
22254;SDS011;11296;42.684;23.322;2022-08-11T09:28:35;5.30;;;4.90;;
22254;SDS011;11296;42.684;23.322;2022-08-11T09:31:01;5.70;;;5.20;;
22254;SDS011;11296;42.684;23.322;2022-08-11T09:33:29;5.40;;;4.88;;
22254;SDS011;11296;42.684;23.322;2022-08-11T09:35:57;4.70;;;4.30;;
22254;SDS011;11296;42.684;23.322;2022-08-11T09:38:45;5.68;;;5.07;;
22254;SDS011;11296;42.684;23.322;2022-08-11T09:41:30;5.38;;;4.90;;
22254;SDS011;11296;42.684;23.322;2022-08-11T09:43:57;5.03;;;4.63;;
22254;SDS011;11296;42.684;23.322;2022-08-11T09:46:43;5.88;;;4.95;;
22254;SDS011;11296;42.684;23.322;2022-08-11T09:49:09;6.90;;;5.18;;
22254;SDS011;11296;42.684;23.322;2022-08-11T09:51:35;6.25;;;5.60;;
22254;SDS011;11296;42.684;23.322;2022-08-11T09:54:02;6.57;;;5.97;;
22254;SDS011;11296;42.684;23.322;2022-08-11T09:56:32;5.97;;;5.32;;
22254;SDS011;11296;42.684;23.322;2022-08-11T09:59:17;5.93;;;5.43;;
22254;SDS011;11296;42.684;23.322;2022-08-11T10:01:46;5.50;;;5.00;;
22254;SDS011;11296;42.684;23.322;2022-08-11T10:04:15;5.63;;;5.13;;
22254;SDS011;11296;42.684;23.322;2022-08-11T10:06:48;5.60;;;5.07;;
22254;SDS011;11296;42.684;23.322;2022-08-11T10:09:38;5.93;;;5.43;;
22254;SDS011;11296;42.684;23.322;2022-08-11T10:12:10;8.05;;;5.80;;
22254;SDS011;11296;42.684;23.322;2022-08-11T10:14:44;5.60;;;5.20;;
22254;SDS011;11296;42.684;23.322;2022-08-11T10:17:35;5.82;;;5.10;;
22254;SDS011;11296;42.684;23.322;2022-08-11T10:20:25;5.70;;;5.20;;
22254;SDS011;11296;42.684;23.322;2022-08-11T10:22:52;5.43;;;5.03;;
22254;SDS011;11296;42.684;23.322;2022-08-11T10:25:37;5.55;;;5.07;;
22254;SDS011;11296;42.684;23.322;2022-08-11T10:28:26;5.43;;;4.93;;
22254;SDS011;11296;42.684;23.322;2022-08-11T10:30:53;6.53;;;5.07;;
22254;SDS011;11296;42.684;23.322;2022-08-11T10:33:39;5.60;;;5.00;;
22254;SDS011;11296;42.684;23.322;2022-08-11T10:36:24;4.90;;;4.50;;
22254;SDS011;11296;42.684;23.322;2022-08-11T10:39:14;5.25;;;4.75;;
22254;SDS011;11296;42.684;23.322;2022-08-11T10:41:44;5.55;;;5.00;;
22254;SDS011;11296;42.684;23.322;2022-08-11T10:44:39;5.15;;;4.55;;
22254;SDS011;11296;42.684;23.322;2022-08-11T10:47:09;4.93;;;4.53;;
22254;SDS011;11296;42.684;23.322;2022-08-11T10:49:55;5.28;;;4.57;;
22254;SDS011;11296;42.684;23.322;2022-08-11T10:52:40;5.38;;;4.60;;
22254;SDS011;11296;42.684;23.322;2022-08-11T10:55:25;5.82;;;4.53;;
22254;SDS011;11296;42.684;23.322;2022-08-11T10:58:10;5.20;;;4.78;;
22254;SDS011;11296;42.684;23.322;2022-08-11T11:00:55;6.30;;;4.45;;
22254;SDS011;11296;42.684;23.322;2022-08-11T11:03:27;4.95;;;4.55;;
22254;SDS011;11296;42.684;23.322;2022-08-11T11:05:56;6.20;;;4.80;;
22254;SDS011;11296;42.684;23.322;2022-08-11T11:08:30;5.22;;;4.60;;
22254;SDS011;11296;42.684;23.322;2022-08-11T11:11:16;5.43;;;4.60;;
22254;SDS011;11296;42.684;23.322;2022-08-11T11:13:48;5.18;;;4.68;;
22254;SDS011;11296;42.684;23.322;2022-08-11T11:16:35;4.57;;;4.18;;
22254;SDS011;11296;42.684;23.322;2022-08-11T11:19:21;5.15;;;4.63;;
22254;SDS011;11296;42.684;23.322;2022-08-11T11:21:50;5.43;;;4.90;;
22254;SDS011;11296;42.684;23.322;2022-08-11T11:37:41;5.88;;;5.40;;
22254;SDS011;11296;42.684;23.322;2022-08-11T11:40:13;5.82;;;5.18;;
22254;SDS011;11296;42.684;23.322;2022-08-11T11:42:45;5.07;;;4.57;;
22254;SDS011;11296;42.684;23.322;2022-08-11T11:45:14;5.22;;;4.82;;
22254;SDS011;11296;42.684;23.322;2022-08-11T11:47:42;9.77;;;5.28;;
22254;SDS011;11296;42.684;23.322;2022-08-11T11:50:08;5.55;;;4.57;;
22254;SDS011;11296;42.684;23.322;2022-08-11T11:52:34;5.50;;;5.07;;
22254;SDS011;11296;42.684;23.322;2022-08-11T11:55:03;6.15;;;5.30;;
22254;SDS011;11296;42.684;23.322;2022-08-11T11:57:30;5.07;;;4.65;;
22254;SDS011;11296;42.684;23.322;2022-08-11T12:00:16;5.15;;;4.75;;
22254;SDS011;11296;42.684;23.322;2022-08-11T12:03:06;5.13;;;4.30;;
22254;SDS011;11296;42.684;23.322;2022-08-11T12:05:35;6.10;;;4.63;;
22254;SDS011;11296;42.684;23.322;2022-08-11T12:08:02;4.70;;;4.30;;
22254;SDS011;11296;42.684;23.322;2022-08-11T12:10:53;8.88;;;4.43;;
22254;SDS011;11296;42.684;23.322;2022-08-11T12:13:43;4.80;;;4.40;;
22254;SDS011;11296;42.684;23.322;2022-08-11T12:16:12;5.60;;;5.00;;
22254;SDS011;11296;42.684;23.322;2022-08-11T12:18:40;4.95;;;4.53;;
22254;SDS011;11296;42.684;23.322;2022-08-11T12:21:08;6.82;;;4.88;;
22254;SDS011;11296;42.684;23.322;2022-08-11T12:23:35;5.38;;;4.85;;
22254;SDS011;11296;42.684;23.322;2022-08-11T12:26:21;5.38;;;4.85;;
22254;SDS011;11296;42.684;23.322;2022-08-11T12:29:06;6.38;;;4.97;;
22254;SDS011;11296;42.684;23.322;2022-08-11T12:31:34;6.65;;;5.07;;
22254;SDS011;11296;42.684;23.322;2022-08-11T12:34:14;4.78;;;4.25;;
22254;SDS011;11296;42.684;23.322;2022-08-11T12:36:48;4.90;;;4.40;;
22254;SDS011;11296;42.684;23.322;2022-08-11T12:39:20;5.35;;;4.28;;
22254;SDS011;11296;42.684;23.322;2022-08-11T12:42:11;5.03;;;4.50;;
22254;SDS011;11296;42.684;23.322;2022-08-11T12:45:16;4.25;;;3.80;;
22254;SDS011;11296;42.684;23.322;2022-08-11T12:51:01;4.20;;;3.90;;
22254;SDS011;11296;42.684;23.322;2022-08-11T12:54:32;4.72;;;4.30;;
22254;SDS011;11296;42.684;23.322;2022-08-11T12:56:54;6.32;;;4.57;;
22254;SDS011;11296;42.684;23.322;2022-08-11T12:59:45;4.40;;;4.10;;
22254;SDS011;11296;42.684;23.322;2022-08-11T13:02:31;5.75;;;4.20;;
22254;SDS011;11296;42.684;23.322;2022-08-11T13:05:16;5.80;;;4.03;;
22254;SDS011;11296;42.684;23.322;2022-08-11T13:07:43;4.75;;;4.20;;
22254;SDS011;11296;42.684;23.322;2022-08-11T13:10:10;6.20;;;4.20;;
22254;SDS011;11296;42.684;23.322;2022-08-11T13:12:38;5.60;;;4.53;;
22254;SDS011;11296;42.684;23.322;2022-08-11T13:15:18;4.00;;;3.70;;
22254;SDS011;11296;42.684;23.322;2022-08-11T13:17:45;6.13;;;4.10;;
22254;SDS011;11296;42.684;23.322;2022-08-11T13:20:15;5.13;;;3.95;;
22254;SDS011;11296;42.684;23.322;2022-08-11T13:22:45;5.15;;;4.28;;
22254;SDS011;11296;42.684;23.322;2022-08-11T13:25:14;4.50;;;4.20;;
22254;SDS011;11296;42.684;23.322;2022-08-11T13:27:42;4.78;;;4.38;;
22254;SDS011;11296;42.684;23.322;2022-08-11T13:30:11;5.22;;;4.78;;
22254;SDS011;11296;42.684;23.322;2022-08-11T13:32:58;7.03;;;4.80;;
22254;SDS011;11296;42.684;23.322;2022-08-11T13:35:24;6.28;;;5.00;;
22254;SDS011;11296;42.684;23.322;2022-08-11T13:37:51;5.20;;;4.70;;
22254;SDS011;11296;42.684;23.322;2022-08-11T13:40:19;5.18;;;4.78;;
22254;SDS011;11296;42.684;23.322;2022-08-11T13:42:46;5.55;;;4.70;;
22254;SDS011;11296;42.684;23.322;2022-08-11T13:45:13;6.07;;;4.57;;
22254;SDS011;11296;42.684;23.322;2022-08-11T13:47:40;5.30;;;4.30;;
22254;SDS011;11296;42.684;23.322;2022-08-11T13:50:07;5.00;;;4.60;;
22254;SDS011;11296;42.684;23.322;2022-08-11T13:52:35;4.30;;;3.90;;
22254;SDS011;11296;42.684;23.322;2022-08-11T13:55:06;4.93;;;4.43;;
22254;SDS011;11296;42.684;23.322;2022-08-11T13:57:34;4.30;;;4.10;;
22254;SDS011;11296;42.684;23.322;2022-08-11T14:00:03;4.78;;;4.38;;
22254;SDS011;11296;42.684;23.322;2022-08-11T14:02:42;4.60;;;4.30;;
22254;SDS011;11296;42.684;23.322;2022-08-11T14:05:13;4.32;;;4.13;;
22254;SDS011;11296;42.684;23.322;2022-08-11T14:07:47;5.03;;;4.70;;
22254;SDS011;11296;42.684;23.322;2022-08-11T14:10:16;4.93;;;4.60;;
22254;SDS011;11296;42.684;23.322;2022-08-11T14:12:58;7.43;;;6.03;;
22254;SDS011;11296;42.684;23.322;2022-08-11T14:15:44;4.70;;;4.30;;
22254;SDS011;11296;42.684;23.322;2022-08-11T14:18:16;3.80;;;3.55;;
22254;SDS011;11296;42.684;23.322;2022-08-11T14:20:48;4.20;;;3.90;;
22254;SDS011;11296;42.684;23.322;2022-08-11T14:23:39;4.30;;;3.90;;
22254;SDS011;11296;42.684;23.322;2022-08-11T14:26:19;8.13;;;7.43;;
22254;SDS011;11296;42.684;23.322;2022-08-11T14:28:53;4.70;;;4.45;;
22254;SDS011;11296;42.684;23.322;2022-08-11T14:31:24;5.22;;;4.93;;
22254;SDS011;11296;42.684;23.322;2022-08-11T14:33:53;5.93;;;5.38;;
22254;SDS011;11296;42.684;23.322;2022-08-11T14:36:24;6.10;;;5.50;;
22254;SDS011;11296;42.684;23.322;2022-08-11T14:38:52;5.85;;;5.30;;
22254;SDS011;11296;42.684;23.322;2022-08-11T14:41:19;5.68;;;5.18;;
22254;SDS011;11296;42.684;23.322;2022-08-11T14:44:04;5.75;;;5.35;;
22254;SDS011;11296;42.684;23.322;2022-08-11T14:46:49;5.93;;;5.53;;
22254;SDS011;11296;42.684;23.322;2022-08-11T14:49:40;6.03;;;5.60;;
22254;SDS011;11296;42.684;23.322;2022-08-11T14:52:08;5.90;;;5.45;;
22254;SDS011;11296;42.684;23.322;2022-08-11T14:54:35;6.10;;;5.70;;
22254;SDS011;11296;42.684;23.322;2022-08-11T14:57:20;7.07;;;5.55;;
22254;SDS011;11296;42.684;23.322;2022-08-11T14:59:48;5.88;;;5.40;;
22254;SDS011;11296;42.684;23.322;2022-08-11T15:02:17;5.65;;;5.25;;
22254;SDS011;11296;42.684;23.322;2022-08-11T15:05:02;6.00;;;5.60;;
22254;SDS011;11296;42.684;23.322;2022-08-11T15:07:30;6.18;;;5.68;;
22254;SDS011;11296;42.684;23.322;2022-08-11T15:10:01;6.22;;;5.70;;
22254;SDS011;11296;42.684;23.322;2022-08-11T15:12:30;5.93;;;5.47;;
22254;SDS011;11296;42.684;23.322;2022-08-11T15:14:57;6.13;;;5.63;;
22254;SDS011;11296;42.684;23.322;2022-08-11T15:17:42;6.88;;;6.05;;
22254;SDS011;11296;42.684;23.322;2022-08-11T15:20:11;5.70;;;5.20;;
22254;SDS011;11296;42.684;23.322;2022-08-11T15:22:58;5.13;;;4.68;;
22254;SDS011;11296;42.684;23.322;2022-08-11T15:25:47;5.07;;;4.68;;
22254;SDS011;11296;42.684;23.322;2022-08-11T15:28:17;4.55;;;4.10;;
22254;SDS011;11296;42.684;23.322;2022-08-11T15:31:04;4.68;;;4.25;;
22254;SDS011;11296;42.684;23.322;2022-08-11T15:34:05;4.72;;;4.32;;
22254;SDS011;11296;42.684;23.322;2022-08-11T15:36:54;4.45;;;4.10;;
22254;SDS011;11296;42.684;23.322;2022-08-11T15:39:52;5.57;;;4.35;;
22254;SDS011;11296;42.684;23.322;2022-08-11T15:42:46;4.50;;;4.20;;
22254;SDS011;11296;42.684;23.322;2022-08-11T15:45:36;4.80;;;4.50;;
22254;SDS011;11296;42.684;23.322;2022-08-11T15:48:20;4.20;;;3.80;;
22254;SDS011;11296;42.684;23.322;2022-08-11T15:50:54;4.32;;;3.97;;
22254;SDS011;11296;42.684;23.322;2022-08-11T15:56:18;5.65;;;4.13;;
22254;SDS011;11296;42.684;23.322;2022-08-11T15:58:47;6.13;;;4.13;;
22254;SDS011;11296;42.684;23.322;2022-08-11T16:01:34;4.25;;;3.85;;
22254;SDS011;11296;42.684;23.322;2022-08-11T16:04:21;4.50;;;4.10;;
22254;SDS011;11296;42.684;23.322;2022-08-11T16:06:59;5.10;;;4.00;;
22254;SDS011;11296;42.684;23.322;2022-08-11T16:09:42;4.75;;;4.18;;
22254;SDS011;11296;42.684;23.322;2022-08-11T16:12:12;5.15;;;4.10;;
22254;SDS011;11296;42.684;23.322;2022-08-11T16:14:42;4.78;;;3.85;;
22254;SDS011;11296;42.684;23.322;2022-08-11T16:17:29;5.25;;;4.20;;
22254;SDS011;11296;42.684;23.322;2022-08-11T16:19:59;4.53;;;4.22;;
22254;SDS011;11296;42.684;23.322;2022-08-11T16:22:28;4.57;;;3.80;;
22254;SDS011;11296;42.684;23.322;2022-08-11T16:25:09;4.28;;;3.90;;
22254;SDS011;11296;42.684;23.322;2022-08-11T16:27:39;4.80;;;4.05;;
22254;SDS011;11296;42.684;23.322;2022-08-11T16:30:08;4.13;;;3.80;;
22254;SDS011;11296;42.684;23.322;2022-08-11T16:32:35;4.55;;;4.07;;
22254;SDS011;11296;42.684;23.322;2022-08-11T16:35:17;5.35;;;4.15;;
22254;SDS011;11296;42.684;23.322;2022-08-11T16:38:04;9.25;;;6.78;;
22254;SDS011;11296;42.684;23.322;2022-08-11T16:40:51;4.07;;;3.63;;
22254;SDS011;11296;42.684;23.322;2022-08-11T16:43:18;5.72;;;4.30;;
22254;SDS011;11296;42.684;23.322;2022-08-11T16:46:07;5.40;;;4.40;;
22254;SDS011;11296;42.684;23.322;2022-08-11T16:48:53;4.85;;;4.38;;
22254;SDS011;11296;42.684;23.322;2022-08-11T16:51:20;5.05;;;4.53;;
22254;SDS011;11296;42.684;23.322;2022-08-11T16:53:47;6.88;;;4.30;;
22254;SDS011;11296;42.684;23.322;2022-08-11T16:56:15;5.43;;;4.35;;
22254;SDS011;11296;42.684;23.322;2022-08-11T16:58:45;4.80;;;4.30;;
22254;SDS011;11296;42.684;23.322;2022-08-11T17:01:35;7.03;;;5.85;;
22254;SDS011;11296;42.684;23.322;2022-08-11T17:04:06;4.88;;;4.35;;
22254;SDS011;11296;42.684;23.322;2022-08-11T17:06:56;5.50;;;4.43;;
22254;SDS011;11296;42.684;23.322;2022-08-11T17:09:40;6.63;;;4.53;;
22254;SDS011;11296;42.684;23.322;2022-08-11T17:12:30;6.13;;;4.45;;
22254;SDS011;11296;42.684;23.322;2022-08-11T17:15:17;5.80;;;4.30;;
22254;SDS011;11296;42.684;23.322;2022-08-11T17:18:04;6.15;;;4.60;;
22254;SDS011;11296;42.684;23.322;2022-08-11T17:20:31;7.85;;;4.93;;
22254;SDS011;11296;42.684;23.322;2022-08-11T17:22:59;4.93;;;4.53;;
22254;SDS011;11296;42.684;23.322;2022-08-11T17:25:45;5.90;;;5.30;;
22254;SDS011;11296;42.684;23.322;2022-08-11T17:28:15;5.10;;;4.60;;
22254;SDS011;11296;42.684;23.322;2022-08-11T17:30:44;5.18;;;4.68;;
22254;SDS011;11296;42.684;23.322;2022-08-11T17:33:30;6.38;;;4.60;;
22254;SDS011;11296;42.684;23.322;2022-08-11T17:36:16;4.70;;;4.30;;
22254;SDS011;11296;42.684;23.322;2022-08-11T17:38:44;7.35;;;4.85;;
22254;SDS011;11296;42.684;23.322;2022-08-11T17:41:11;12.70;;;9.98;;
22254;SDS011;11296;42.684;23.322;2022-08-11T17:43:57;7.47;;;6.78;;
22254;SDS011;11296;42.684;23.322;2022-08-11T17:46:42;4.60;;;4.20;;
22254;SDS011;11296;42.684;23.322;2022-08-11T17:49:29;5.05;;;4.55;;
22254;SDS011;11296;42.684;23.322;2022-08-11T17:52:01;5.82;;;4.60;;
22254;SDS011;11296;42.684;23.322;2022-08-11T17:54:47;5.35;;;4.82;;
22254;SDS011;11296;42.684;23.322;2022-08-11T17:57:33;6.75;;;5.25;;
22254;SDS011;11296;42.684;23.322;2022-08-11T18:00:21;5.63;;;5.03;;
22254;SDS011;11296;42.684;23.322;2022-08-11T18:02:48;5.53;;;4.38;;
22254;SDS011;11296;42.684;23.322;2022-08-11T18:05:36;5.05;;;4.50;;
22254;SDS011;11296;42.684;23.322;2022-08-11T18:08:08;5.80;;;4.95;;
22254;SDS011;11296;42.684;23.322;2022-08-11T18:10:54;7.05;;;5.10;;
22254;SDS011;11296;42.684;23.322;2022-08-11T18:13:40;9.00;;;5.60;;
22254;SDS011;11296;42.684;23.322;2022-08-11T18:16:26;6.13;;;5.53;;
22254;SDS011;11296;42.684;23.322;2022-08-11T18:19:11;5.03;;;4.63;;
22254;SDS011;11296;42.684;23.322;2022-08-11T18:22:05;7.55;;;4.47;;
22254;SDS011;11296;42.684;23.322;2022-08-11T18:25:05;4.60;;;4.20;;
22254;SDS011;11296;42.684;23.322;2022-08-11T18:27:53;10.10;;;7.63;;
22254;SDS011;11296;42.684;23.322;2022-08-11T18:30:39;5.55;;;4.85;;
22254;SDS011;11296;42.684;23.322;2022-08-11T18:33:29;6.50;;;5.55;;
22254;SDS011;11296;42.684;23.322;2022-08-11T18:36:37;5.38;;;4.60;;
22254;SDS011;11296;42.684;23.322;2022-08-11T18:39:26;5.75;;;4.40;;
22254;SDS011;11296;42.684;23.322;2022-08-11T18:42:13;5.07;;;4.60;;
22254;SDS011;11296;42.684;23.322;2022-08-11T18:45:02;8.40;;;4.87;;
22254;SDS011;11296;42.684;23.322;2022-08-11T18:47:51;5.60;;;5.10;;
22254;SDS011;11296;42.684;23.322;2022-08-11T18:50:43;7.47;;;4.70;;
22254;SDS011;11296;42.684;23.322;2022-08-11T18:53:28;9.63;;;5.82;;
22254;SDS011;11296;42.684;23.322;2022-08-11T18:56:15;6.10;;;4.70;;
22254;SDS011;11296;42.684;23.322;2022-08-11T18:59:02;6.22;;;4.50;;
22254;SDS011;11296;42.684;23.322;2022-08-11T19:01:49;5.00;;;4.20;;
22254;SDS011;11296;42.684;23.322;2022-08-11T19:04:35;8.30;;;5.93;;
22254;SDS011;11296;42.684;23.322;2022-08-11T19:07:21;6.13;;;5.53;;
22254;SDS011;11296;42.684;23.322;2022-08-11T19:10:07;8.00;;;6.87;;
22254;SDS011;11296;42.684;23.322;2022-08-11T19:12:52;6.17;;;5.00;;
22254;SDS011;11296;42.684;23.322;2022-08-11T19:15:37;6.23;;;4.40;;
22254;SDS011;11296;42.684;23.322;2022-08-11T19:18:22;4.87;;;4.17;;
22254;SDS011;11296;42.684;23.322;2022-08-11T19:21:07;6.07;;;4.63;;
22254;SDS011;11296;42.684;23.322;2022-08-11T19:23:55;4.70;;;4.30;;
22254;SDS011;11296;42.684;23.322;2022-08-11T19:26:43;5.60;;;3.97;;